Terminal Aerodrome Forecast
Issued by NWS Cleveland, OH

Home | Current Version | Previous Version | Text Only | Print | Product List | Glossary Off
Versions: 1 2 3 4 5 6 7 8 9 10 11 12 13 14 15 16 17 18 19

000
FTUS41 KCLE 261410 AAA
TAFERI
TAF AMD
KERI 261410Z 2614/2712 03011KT 1SM BR OVC003
      TEMPO 2614/2618 3SM BR OVC006
     FM261800 03014G24KT 5SM BR OVC008
     FM262000 04014G24KT P6SM OVC012
     FM270300 04010KT P6SM BKN020
     FM270600 05007KT P6SM SCT025=

USA.gov is the U.S. government's official web portal to all federal, state and local government web resources and services.